Time,TemperatureF,DewpointF,PressureIn,WindDirection,WindDirectionDegrees,WindSpeedMPH,WindSpeedGustMPH,Humidity,HourlyPrecipIn,Conditions,Clouds,dailyrainin,SoftwareType,DateUTC
2013-06-04 00:01:00,57.1,49.0,25.18,NNW,332,9.0,14.0,74,0.00,,,0.00,weatherlink.com 1.10,2013-06-04 06:01:00,
2013-06-04 00:16:00,56.6,49.0,25.17,NNE,18,5.0,11.0,75,0.00,,,0.00,weatherlink.com 1.10,2013-06-04 06:16:00,
2013-06-04 00:31:00,56.0,49.0,25.18,NE,37,4.0,8.0,77,0.00,,,0.00,weatherlink.com 1.10,2013-06-04 06:31:00,
2013-06-04 00:46:00,54.9,49.0,25.19,NE,37,3.0,4.0,79,0.00,,,0.00,weatherlink.com 1.10,2013-06-04 06:46:00,
2013-06-04 01:16:00,53.8,49.0,25.20,NNE,29,4.0,6.0,85,0.00,,,0.00,weatherlink.com 1.10,2013-06-04 07:16:00,
2013-06-04 01:31:00,53.7,49.0,25.20,NNW,339,2.0,5.0,85,0.00,,,0.00,weatherlink.com 1.10,2013-06-04 07:31:00,
2013-06-04 01:46:00,53.9,50.0,25.21,ESE,114,0.0,4.0,85,0.00,,,0.00,weatherlink.com 1.10,2013-06-04 07:46:00,
2013-06-04 02:01:00,54.6,50.0,25.21,NNE,24,4.0,7.0,83,0.00,,,0.00,weatherlink.com 1.10,2013-06-04 08:01:00,
2013-06-04 02:16:00,54.0,49.0,25.22,North,9,3.0,5.0,84,0.00,,,0.00,weatherlink.com 1.10,2013-06-04 08:16:00,
2013-06-04 02:31:00,53.0,49.0,25.22,NW,315,4.0,6.0,86,0.00,,,0.00,weatherlink.com 1.10,2013-06-04 08:31:00,
2013-06-04 02:46:00,51.9,48.0,25.23,NNW,328,5.0,7.0,87,0.00,,,0.00,weatherlink.com 1.10,2013-06-04 08:46:00,
2013-06-04 03:01:00,51.2,48.0,25.23,NNE,13,7.0,8.0,87,0.00,,,0.00,weatherlink.com 1.10,2013-06-04 09:01:00,
2013-06-04 03:17:00,50.9,47.0,25.24,North,5,5.0,8.0,87,0.00,,,0.00,weatherlink.com 1.10,2013-06-04 09:17:00,
2013-06-04 03:32:00,50.8,47.0,25.24,North,3,7.0,11.0,88,0.00,,,0.00,weatherlink.com 1.10,2013-06-04 09:32:00,
2013-06-04 03:47:00,50.5,47.0,25.24,North,1,4.0,12.0,87,0.00,,,0.00,weatherlink.com 1.10,2013-06-04 09:47:00,
2013-06-04 04:02:00,49.5,45.0,25.25,NNE,22,3.0,8.0,85,0.00,,,0.00,weatherlink.com 1.10,2013-06-04 10:02:00,
2013-06-04 04:17:00,48.3,44.0,25.25,NNE,32,4.0,7.0,84,0.00,,,0.00,weatherlink.com 1.10,2013-06-04 10:17:00,
2013-06-04 04:32:00,47.3,43.0,25.26,NW,322,2.0,5.0,85,0.00,,,0.00,weatherlink.com 1.10,2013-06-04 10:32:00,
2013-06-04 04:47:00,46.7,43.0,25.27,NNW,333,2.0,4.0,85,0.00,,,0.00,weatherlink.com 1.10,2013-06-04 10:47:00,
2013-06-04 05:02:00,46.5,42.0,25.27,NW,312,5.0,6.0,85,0.00,,,0.00,weatherlink.com 1.10,2013-06-04 11:02:00,
2013-06-04 05:17:00,46.4,41.0,25.27,North,349,7.0,13.0,82,0.00,,,0.00,weatherlink.com 1.10,2013-06-04 11:17:00,
2013-06-04 05:32:00,46.0,40.0,25.28,NNW,338,5.0,8.0,80,0.00,,,0.00,weatherlink.com 1.10,2013-06-04 11:32:00,
2013-06-04 05:47:00,45.4,40.0,25.28,North,354,3.0,7.0,80,0.00,,,0.00,weatherlink.com 1.10,2013-06-04 11:47:00,
2013-06-04 06:02:00,45.3,40.0,25.29,NNW,345,4.0,8.0,80,0.00,,,0.00,weatherlink.com 1.10,2013-06-04 12:02:00,
2013-06-04 06:17:00,46.2,40.0,25.29,NW,311,3.0,9.0,79,0.00,,,0.00,weatherlink.com 1.10,2013-06-04 12:17:00,
2013-06-04 06:32:00,47.3,40.0,25.29,NNW,345,5.0,7.0,76,0.00,,,0.00,weatherlink.com 1.10,2013-06-04 12:32:00,
2013-06-04 06:47:00,48.4,40.0,25.29,NNW,328,6.0,10.0,74,0.00,,,0.00,weatherlink.com 1.10,2013-06-04 12:47:00,
2013-06-04 07:02:00,49.4,40.0,25.30,NNW,335,3.0,12.0,71,0.00,,,0.00,weatherlink.com 1.10,2013-06-04 13:02:00,
2013-06-04 07:17:00,50.3,40.0,25.30,NE,36,13.0,14.0,68,0.00,,,0.00,weatherlink.com 1.10,2013-06-04 13:17:00,
2013-06-04 07:32:00,51.4,40.0,25.30,NNW,328,7.0,12.0,66,0.00,,,0.00,weatherlink.com 1.10,2013-06-04 13:32:00,
2013-06-04 07:47:00,52.4,40.0,25.30,North,352,11.0,14.0,63,0.00,,,0.00,weatherlink.com 1.10,2013-06-04 13:47:00,
2013-06-04 08:02:00,54.0,41.0,25.30,NNW,341,6.0,11.0,61,0.00,,,0.00,weatherlink.com 1.10,2013-06-04 14:02:00,
2013-06-04 08:17:00,54.8,41.0,25.30,North,350,7.0,13.0,59,0.00,,,0.00,weatherlink.com 1.10,2013-06-04 14:17:00,
2013-06-04 08:32:00,55.9,41.0,25.31,NNE,33,5.0,13.0,57,0.00,,,0.00,weatherlink.com 1.10,2013-06-04 14:32:00,
2013-06-04 08:47:00,57.1,41.0,25.31,North,11,7.0,12.0,55,0.00,,,0.00,weatherlink.com 1.10,2013-06-04 14:47:00,
2013-06-04 09:02:00,58.4,40.0,25.30,North,354,12.0,13.0,51,0.00,,,0.00,weatherlink.com 1.10,2013-06-04 15:02:00,
2013-06-04 09:18:00,59.4,41.0,25.30,NNE,30,13.0,16.0,50,0.00,,,0.00,weatherlink.com 1.10,2013-06-04 15:18:00,
2013-06-04 09:33:00,60.1,41.0,25.30,NW,318,6.0,13.0,49,0.00,,,0.00,weatherlink.com 1.10,2013-06-04 15:33:00,
2013-06-04 09:48:00,61.0,41.0,25.30,NNE,29,12.0,13.0,48,0.00,,,0.00,weatherlink.com 1.10,2013-06-04 15:48:00,
2013-06-04 10:03:00,61.9,41.0,25.30,NNE,15,4.0,11.0,47,0.00,,,0.00,weatherlink.com 1.10,2013-06-04 16:03:00,
2013-06-04 10:18:00,63.9,43.0,25.30,NNE,23,11.0,11.0,46,0.00,,,0.00,weatherlink.com 1.10,2013-06-04 16:18:00,
2013-06-04 10:33:00,64.5,42.0,25.30,NE,56,5.0,8.0,44,0.00,,,0.00,weatherlink.com 1.10,2013-06-04 16:33:00,
2013-06-04 10:48:00,65.6,42.0,25.29,ENE,57,4.0,10.0,43,0.00,,,0.00,weatherlink.com 1.10,2013-06-04 16:48:00,
2013-06-04 11:03:00,65.9,42.0,25.30,NE,40,2.0,7.0,42,0.00,,,0.00,weatherlink.com 1.10,2013-06-04 17:03:00,
2013-06-04 11:18:00,68.1,41.0,25.29,ENE,59,1.0,8.0,38,0.00,,,0.00,weatherlink.com 1.10,2013-06-04 17:18:00,
2013-06-04 11:33:00,67.7,42.0,25.29,NNE,30,7.0,9.0,39,0.00,,,0.00,weatherlink.com 1.10,2013-06-04 17:33:00,
2013-06-04 11:48:00,68.6,42.0,25.29,NNE,32,6.0,8.0,38,0.00,,,0.00,weatherlink.com 1.10,2013-06-04 17:48:00,
2013-06-04 12:03:00,68.6,42.0,25.29,NNE,12,1.0,7.0,38,0.00,,,0.00,weatherlink.com 1.10,2013-06-04 18:03:00,
2013-06-04 12:18:00,68.6,42.0,25.28,NNE,27,7.0,7.0,38,0.00,,,0.00,weatherlink.com 1.10,2013-06-04 18:18:00,
2013-06-04 12:33:00,70.4,42.0,25.28,NNE,33,6.0,7.0,36,0.00,,,0.00,weatherlink.com 1.10,2013-06-04 18:33:00,
2013-06-04 12:48:00,70.6,43.0,25.27,ESE,115,3.0,7.0,37,0.00,,,0.00,weatherlink.com 1.10,2013-06-04 18:48:00,
2013-06-04 13:03:00,70.7,43.0,25.27,SE,136,3.0,7.0,37,0.00,,,0.00,weatherlink.com 1.10,2013-06-04 19:03:00,
2013-06-04 13:18:00,70.0,43.0,25.27,ESE,118,0.0,6.0,38,0.00,,,0.00,weatherlink.com 1.10,2013-06-04 19:18:00,
2013-06-04 13:33:00,72.3,43.0,25.26,NNE,13,5.0,10.0,35,0.00,,,0.00,weatherlink.com 1.10,2013-06-04 19:33:00,
2013-06-04 13:48:00,71.7,43.0,25.26,NNE,17,2.0,10.0,36,0.00,,,0.00,weatherlink.com 1.10,2013-06-04 19:48:00,
2013-06-04 14:03:00,71.4,42.0,25.26,NE,47,0.0,10.0,35,0.00,,,0.00,weatherlink.com 1.10,2013-06-04 20:03:00,
2013-06-04 14:18:00,72.4,44.0,25.25,SE,126,3.0,10.0,36,0.00,,,0.00,weatherlink.com 1.10,2013-06-04 20:18:00,
2013-06-04 14:33:00,72.7,43.0,25.25,NNW,333,5.0,11.0,34,0.00,,,0.00,weatherlink.com 1.10,2013-06-04 20:33:00,
2013-06-04 14:48:00,74.4,43.0,25.25,NNE,30,5.0,9.0,33,0.00,,,0.00,weatherlink.com 1.10,2013-06-04 20:48:00,
2013-06-04 15:03:00,71.9,43.0,25.25,ENE,61,2.0,8.0,35,0.00,,,0.00,weatherlink.com 1.10,2013-06-04 21:03:00,
2013-06-04 15:18:00,74.5,42.0,25.25,NE,34,4.0,8.0,31,0.00,,,0.00,weatherlink.com 1.10,2013-06-04 21:18:00,
2013-06-04 15:33:00,74.4,41.0,25.25,ENE,71,1.0,7.0,30,0.00,,,0.00,weatherlink.com 1.10,2013-06-04 21:33:00,
2013-06-04 15:48:00,74.6,43.0,25.25,NNE,30,5.0,11.0,32,0.00,,,0.00,weatherlink.com 1.10,2013-06-04 21:48:00,
2013-06-04 16:03:00,73.1,42.0,25.25,NE,40,10.0,12.0,33,0.00,,,0.00,weatherlink.com 1.10,2013-06-04 22:03:00,
2013-06-04 16:18:00,75.4,42.0,25.25,North,6,2.0,7.0,30,0.00,,,0.00,weatherlink.com 1.10,2013-06-04 22:18:00,
2013-06-04 16:33:00,71.3,41.0,25.25,NE,56,4.0,12.0,34,0.00,,,0.00,weatherlink.com 1.10,2013-06-04 22:33:00,
2013-06-04 16:48:00,70.9,42.0,25.25,NE,37,8.0,8.0,35,0.00,,,0.00,weatherlink.com 1.10,2013-06-04 22:48:00,
2013-06-04 17:03:00,69.2,42.0,25.25,NNE,15,3.0,11.0,37,0.00,,,0.00,weatherlink.com 1.10,2013-06-04 23:03:00,
2013-06-04 17:18:00,67.1,46.0,25.25,NE,37,8.0,10.0,47,0.00,,,0.00,weatherlink.com 1.10,2013-06-04 23:18:00,
2013-06-04 17:33:00,64.3,47.0,25.26,NNE,27,11.0,14.0,53,0.00,,,0.00,weatherlink.com 1.10,2013-06-04 23:33:00,
2013-06-04 17:48:00,60.9,49.0,25.27,NNE,30,14.0,23.0,64,0.01,,,0.01,weatherlink.com 1.10,2013-06-04 23:48:00,
2013-06-04 18:03:00,58.6,49.0,25.28,NNE,30,10.0,12.0,71,0.02,,,0.02,weatherlink.com 1.10,2013-06-05 00:03:00,
2013-06-04 18:18:00,58.1,51.0,25.30,NNE,27,9.0,11.0,76,0.04,,,0.04,weatherlink.com 1.10,2013-06-05 00:18:00,
2013-06-04 18:33:00,56.5,50.0,25.32,NNE,33,8.0,13.0,78,0.08,,,0.08,weatherlink.com 1.10,2013-06-05 00:33:00,
2013-06-04 18:48:00,55.9,50.0,25.32,NNE,32,5.0,9.0,81,0.12,,,0.13,weatherlink.com 1.10,2013-06-05 00:48:00,
2013-06-04 19:04:00,54.8,49.0,25.35,NE,50,16.0,17.0,80,0.14,,,0.16,weatherlink.com 1.10,2013-06-05 01:04:00,
2013-06-04 19:19:00,53.8,49.0,25.33,NE,37,20.0,20.0,84,0.18,,,0.22,weatherlink.com 1.10,2013-06-05 01:19:00,
2013-06-04 19:34:00,53.2,48.0,25.33,NE,41,12.0,21.0,82,0.13,,,0.22,weatherlink.com 1.10,2013-06-05 01:34:00,
2013-06-04 19:49:00,53.3,48.0,25.34,NE,36,17.0,18.0,81,0.09,,,0.22,weatherlink.com 1.10,2013-06-05 01:49:00,
2013-06-04 20:04:00,53.4,47.0,25.33,NNE,25,11.0,17.0,80,0.05,,,0.22,weatherlink.com 1.10,2013-06-05 02:04:00,
2013-06-04 20:19:00,53.5,48.0,25.34,NNE,12,12.0,14.0,80,0.00,,,0.22,weatherlink.com 1.10,2013-06-05 02:19:00,
2013-06-04 20:34:00,53.5,47.0,25.34,NE,37,11.0,15.0,79,0.01,,,0.23,weatherlink.com 1.10,2013-06-05 02:34:00,
2013-06-04 20:49:00,53.5,46.0,25.35,NE,34,12.0,14.0,77,0.01,,,0.23,weatherlink.com 1.10,2013-06-05 02:49:00,
2013-06-04 21:04:00,53.8,47.0,25.36,NNE,30,11.0,14.0,78,0.01,,,0.23,weatherlink.com 1.10,2013-06-05 03:04:00,
2013-06-04 21:19:00,53.8,46.0,25.37,NNE,16,12.0,18.0,74,0.01,,,0.23,weatherlink.com 1.10,2013-06-05 03:19:00,
2013-06-04 21:34:00,53.7,44.0,25.39,NE,34,16.0,24.0,71,0.00,,,0.23,weatherlink.com 1.10,2013-06-05 03:34:00,
2013-06-04 21:49:00,52.9,43.0,25.39,NE,53,14.0,21.0,70,0.00,,,0.23,weatherlink.com 1.10,2013-06-05 03:49:00,
2013-06-04 22:04:00,52.4,44.0,25.39,NE,44,14.0,18.0,72,0.00,,,0.23,weatherlink.com 1.10,2013-06-05 04:04:00,
2013-06-04 22:19:00,51.8,43.0,25.41,NNE,31,13.0,25.0,73,0.00,,,0.23,weatherlink.com 1.10,2013-06-05 04:19:00,
2013-06-04 22:34:00,50.6,44.0,25.42,NNE,33,13.0,22.0,78,0.00,,,0.23,weatherlink.com 1.10,2013-06-05 04:34:00,
2013-06-04 22:49:00,50.2,44.0,25.42,NNE,30,11.0,19.0,79,0.00,,,0.23,weatherlink.com 1.10,2013-06-05 04:49:00,
2013-06-04 23:04:00,49.9,44.0,25.41,NNE,23,13.0,17.0,80,0.00,,,0.23,weatherlink.com 1.10,2013-06-05 05:04:00,
2013-06-04 23:19:00,49.6,44.0,25.41,NNE,29,12.0,14.0,80,0.00,,,0.23,weatherlink.com 1.10,2013-06-05 05:19:00,
2013-06-04 23:34:00,49.3,44.0,25.41,NNE,33,9.0,20.0,81,0.00,,,0.00,weatherlink.com 1.10,2013-06-05 05:34:00,
2013-06-04 23:49:00,49.0,44.0,25.41,NE,37,11.0,18.0,82,0.00,,,0.00,weatherlink.com 1.10,2013-06-05 05:49:00,